Time;durP1;ratioP1;P1;durP2;ratioP2;P2;SDS_P1;SDS_P2;PMS_P1;PMS_P2;Temp;Humidity;BMP_temperature;BMP_pressure;BME280_temperature;BME280_humidity;BME280_pressure;Samples;Min_cycle;Max_cycle;Signal;HPM_P1;HPM_P2
2023/06/09 00:01:38;;;;;;;14.23;3.83;;;;;;;;;;5032768;28;20273;-69
2023/06/09 00:04:04;;;;;;;8.50;3.10;;;;;;;;;;5037628;28;20210;-70
2023/06/09 00:06:30;;;;;;;10.85;3.63;;;;;;;;;;5033544;28;20258;-69
2023/06/09 00:08:59;;;;;;;9.63;3.25;;;;;;;;;;5035610;28;20233;-70
2023/06/09 00:11:26;;;;;;;17.08;4.22;;;;;;;;;;5024728;28;20244;-70
2023/06/09 00:13:53;;;;;;;12.18;3.97;;;;;;;;;;5031679;28;20243;-70
2023/06/09 00:16:18;;;;;;;12.15;4.13;;;;;;;;;;5047143;28;20224;-71
2023/06/09 00:18:45;;;;;;;12.43;4.03;;;;;;;;;;5031235;28;20182;-71
2023/06/09 00:21:17;;;;;;;16.83;5.25;;;;;;;;;;5037750;28;20190;-70
2023/06/09 00:23:44;;;;;;;8.93;3.40;;;;;;;;;;5026747;28;20217;-70
2023/06/09 00:26:10;;;;;;;14.40;4.15;;;;;;;;;;5019554;28;20587;-70
2023/06/09 00:28:35;;;;;;;10.65;3.63;;;;;;;;;;5038470;28;20212;-70
2023/06/09 00:31:01;;;;;;;14.88;4.30;;;;;;;;;;5032560;28;20195;-70
2023/06/09 00:33:26;;;;;;;16.27;4.20;;;;;;;;;;5034728;28;20185;-69
2023/06/09 00:35:52;;;;;;;14.25;4.47;;;;;;;;;;5037243;28;20559;-69
2023/06/09 00:38:17;;;;;;;13.52;3.80;;;;;;;;;;5021479;28;20212;-70
2023/06/09 00:40:42;;;;;;;13.57;4.00;;;;;;;;;;5028417;28;20290;-69
2023/06/09 00:43:08;;;;;;;10.20;4.10;;;;;;;;;;5028574;28;20226;-69
2023/06/09 00:45:33;;;;;;;12.95;3.33;;;;;;;;;;5016231;28;20190;-69
2023/06/09 00:47:58;;;;;;;11.20;3.53;;;;;;;;;;5021937;28;20627;-70
2023/06/09 00:50:24;;;;;;;13.32;3.92;;;;;;;;;;5010130;28;20191;-70
2023/06/09 00:52:51;;;;;;;12.73;3.88;;;;;;;;;;5021998;28;20257;-70
2023/06/09 00:55:17;;;;;;;11.77;4.18;;;;;;;;;;5021793;28;20563;-69
2023/06/09 00:57:43;;;;;;;17.88;4.88;;;;;;;;;;5022753;28;20185;-70
2023/06/09 01:00:11;;;;;;;10.85;3.70;;;;;;;;;;5036288;28;20211;-69
2023/06/09 01:02:37;;;;;;;9.40;4.25;;;;;;;;;;5029744;28;20618;-70
2023/06/09 01:05:03;;;;;;;12.65;3.97;;;;;;;;;;5041175;28;20201;-69
2023/06/09 01:07:38;;;;;;;10.07;3.47;;;;;;;;;;5036773;28;20237;-69
2023/06/09 01:10:22;;;;;;;12.85;5.00;;;;;;;;;;5029387;28;20594;-70
2023/06/09 01:13:03;;;;;;;11.48;4.35;;;;;;;;;;5027061;28;20194;-70
2023/06/09 01:15:36;;;;;;;13.45;3.72;;;;;;;;;;5031309;28;20189;-70
2023/06/09 01:18:04;;;;;;;12.90;4.53;;;;;;;;;;5028002;28;20223;-69
2023/06/09 01:20:32;;;;;;;13.52;4.70;;;;;;;;;;5027979;28;20194;-69
2023/06/09 01:23:04;;;;;;;14.27;4.45;;;;;;;;;;5025840;28;20206;-70
2023/06/09 01:25:37;;;;;;;13.55;4.85;;;;;;;;;;5040698;28;20234;-69
2023/06/09 01:28:11;;;;;;;15.45;4.55;;;;;;;;;;5027474;28;20666;-69
2023/06/09 01:30:40;;;;;;;16.40;4.50;;;;;;;;;;5026451;28;20201;-69
2023/06/09 01:33:26;;;;;;;14.30;4.97;;;;;;;;;;5023264;28;20597;-70
2023/06/09 01:35:53;;;;;;;17.30;4.38;;;;;;;;;;5028038;28;20566;-70
2023/06/09 01:38:21;;;;;;;15.10;4.55;;;;;;;;;;5022942;28;20218;-70
2023/06/09 01:40:47;;;;;;;12.75;4.03;;;;;;;;;;5019060;28;20264;-70
2023/06/09 01:43:12;;;;;;;11.85;4.47;;;;;;;;;;5026243;28;20205;-70
2023/06/09 01:45:38;;;;;;;13.18;4.38;;;;;;;;;;5031248;28;20578;-70
2023/06/09 01:48:17;;;;;;;19.50;5.10;;;;;;;;;;5029709;28;20665;-70
2023/06/09 01:50:53;;;;;;;14.32;4.57;;;;;;;;;;5021747;28;20194;-70
2023/06/09 01:53:26;;;;;;;12.68;4.82;;;;;;;;;;5023054;28;20197;-70
2023/06/09 01:55:58;;;;;;;13.95;4.80;;;;;;;;;;5027090;28;20202;-70
2023/06/09 01:58:28;;;;;;;14.02;4.45;;;;;;;;;;5029469;28;20674;-70
2023/06/09 02:00:56;;;;;;;16.60;4.57;;;;;;;;;;5029962;28;20648;-71
2023/06/09 02:03:23;;;;;;;13.45;4.95;;;;;;;;;;5026363;28;20209;-71
2023/06/09 02:05:52;;;;;;;14.55;5.03;;;;;;;;;;5029806;28;20221;-71
2023/06/09 02:08:18;;;;;;;13.80;5.47;;;;;;;;;;5033403;28;20193;-71
2023/06/09 02:10:43;;;;;;;19.60;5.22;;;;;;;;;;5036767;28;20518;-69
2023/06/09 02:13:19;;;;;;;20.88;5.65;;;;;;;;;;5028085;28;20193;-70
2023/06/09 02:15:46;;;;;;;18.88;5.70;;;;;;;;;;5017898;28;20409;-69
2023/06/09 02:18:12;;;;;;;17.05;5.68;;;;;;;;;;5031085;28;20737;-70
2023/06/09 02:20:39;;;;;;;14.43;4.72;;;;;;;;;;5046607;28;20588;-69
2023/06/09 02:23:05;;;;;;;14.00;5.32;;;;;;;;;;5035632;28;20218;-71
2023/06/09 02:25:32;;;;;;;18.88;5.47;;;;;;;;;;5040940;28;20201;-71
2023/06/09 02:27:58;;;;;;;17.58;5.40;;;;;;;;;;5033558;28;20194;-71
2023/06/09 02:30:23;;;;;;;15.48;5.75;;;;;;;;;;5029391;28;20190;-71
2023/06/09 02:32:49;;;;;;;18.83;5.78;;;;;;;;;;5029831;28;20182;-71
2023/06/09 02:35:14;;;;;;;15.57;5.95;;;;;;;;;;5037919;28;20250;-70
2023/06/09 02:37:41;;;;;;;15.18;5.53;;;;;;;;;;5030587;28;20186;-71
2023/06/09 02:40:08;;;;;;;18.85;6.53;;;;;;;;;;5029545;28;20261;-71
2023/06/09 02:42:34;;;;;;;15.40;5.60;;;;;;;;;;5018407;28;20211;-71
2023/06/09 02:45:00;;;;;;;17.58;6.05;;;;;;;;;;5029119;28;20201;-71
2023/06/09 02:47:25;;;;;;;24.52;5.70;;;;;;;;;;5026625;28;20642;-71
2023/06/09 02:49:51;;;;;;;15.00;5.47;;;;;;;;;;5025149;28;20201;-71
2023/06/09 02:52:16;;;;;;;14.60;6.22;;;;;;;;;;5027426;28;20247;-72
2023/06/09 02:54:43;;;;;;;17.20;5.78;;;;;;;;;;5024737;28;20202;-70
2023/06/09 02:57:09;;;;;;;18.77;6.65;;;;;;;;;;5030520;28;20220;-70
2023/06/09 02:59:34;;;;;;;14.65;5.57;;;;;;;;;;5023332;28;20277;-71
2023/06/09 03:01:59;;;;;;;17.05;6.47;;;;;;;;;;5023601;28;20267;-72
2023/06/09 03:04:25;;;;;;;15.23;6.40;;;;;;;;;;5028364;28;20221;-71
2023/06/09 03:06:53;;;;;;;18.35;6.40;;;;;;;;;;5027178;28;20182;-71
2023/06/09 03:09:18;;;;;;;18.50;6.63;;;;;;;;;;5029331;28;20301;-71
2023/06/09 03:11:44;;;;;;;20.38;6.45;;;;;;;;;;5023689;28;20276;-69
2023/06/09 03:14:10;;;;;;;17.65;6.47;;;;;;;;;;5014962;28;20187;-70
2023/06/09 03:16:35;;;;;;;16.48;7.07;;;;;;;;;;5009534;28;20194;-70
2023/06/09 03:19:01;;;;;;;17.10;6.75;;;;;;;;;;5022220;28;20194;-70
2023/06/09 03:21:26;;;;;;;19.27;7.30;;;;;;;;;;5027231;28;20225;-70
2023/06/09 03:23:52;;;;;;;19.45;7.22;;;;;;;;;;5023569;28;20309;-70
2023/06/09 03:26:20;;;;;;;19.30;6.95;;;;;;;;;;5022996;28;20198;-70
2023/06/09 03:28:45;;;;;;;15.80;7.05;;;;;;;;;;5027492;28;20233;-70
2023/06/09 03:31:13;;;;;;;21.77;7.22;;;;;;;;;;5029748;28;20268;-71
2023/06/09 03:33:38;;;;;;;21.42;7.35;;;;;;;;;;5025574;28;20265;-70
2023/06/09 03:36:04;;;;;;;18.60;7.00;;;;;;;;;;5046018;28;20229;-70
2023/06/09 03:38:29;;;;;;;20.75;8.05;;;;;;;;;;5024005;28;20187;-70
2023/06/09 03:40:55;;;;;;;24.23;8.38;;;;;;;;;;5027286;28;20251;-69
2023/06/09 03:43:20;;;;;;;28.55;8.10;;;;;;;;;;5035005;28;20703;-70
2023/06/09 03:45:45;;;;;;;20.10;7.70;;;;;;;;;;5019787;28;20191;-69
2023/06/09 03:48:11;;;;;;;26.38;8.18;;;;;;;;;;5021659;28;20389;-69
2023/06/09 03:50:36;;;;;;;23.27;8.52;;;;;;;;;;5026300;28;20256;-70
2023/06/09 03:53:02;;;;;;;21.70;8.48;;;;;;;;;;5017323;28;20266;-70
2023/06/09 03:55:31;;;;;;;19.85;7.93;;;;;;;;;;5030264;28;20186;-69
2023/06/09 03:57:56;;;;;;;20.58;7.63;;;;;;;;;;5027430;28;20245;-69
2023/06/09 04:00:21;;;;;;;21.38;7.57;;;;;;;;;;5031549;28;20214;-70
2023/06/09 04:02:47;;;;;;;21.10;7.32;;;;;;;;;;5027543;28;20259;-70
2023/06/09 04:05:12;;;;;;;22.10;8.05;;;;;;;;;;5024059;28;20197;-70
2023/06/09 04:07:38;;;;;;;24.75;7.95;;;;;;;;;;5033514;28;20256;-70
2023/06/09 04:10:04;;;;;;;24.17;7.57;;;;;;;;;;5038308;28;20186;-70
2023/06/09 04:12:30;;;;;;;20.15;7.72;;;;;;;;;;5023252;28;20474;-70
2023/06/09 04:14:55;;;;;;;15.90;7.53;;;;;;;;;;5024209;28;20194;-70
2023/06/09 04:17:22;;;;;;;22.65;8.73;;;;;;;;;;5031479;28;20684;-70
2023/06/09 04:19:48;;;;;;;23.80;7.88;;;;;;;;;;5023519;28;20193;-71
2023/06/09 04:22:13;;;;;;;25.77;8.70;;;;;;;;;;5024157;28;20194;-70
2023/06/09 04:24:39;;;;;;;20.15;8.23;;;;;;;;;;5027549;28;20281;-70
2023/06/09 04:27:04;;;;;;;20.85;7.90;;;;;;;;;;5022509;28;20194;-70
2023/06/09 04:29:33;;;;;;;20.95;8.38;;;;;;;;;;5031659;28;20194;-70
2023/06/09 04:31:59;;;;;;;20.02;8.75;;;;;;;;;;5032597;28;20190;-70
2023/06/09 04:34:28;;;;;;;19.92;8.20;;;;;;;;;;5024163;28;20657;-71
2023/06/09 04:36:56;;;;;;;22.42;8.52;;;;;;;;;;5023723;28;20191;-71
2023/06/09 04:39:25;;;;;;;23.42;8.85;;;;;;;;;;5024781;28;20230;-70
2023/06/09 04:41:53;;;;;;;24.38;8.93;;;;;;;;;;5019973;28;20216;-71
2023/06/09 04:44:20;;;;;;;24.48;9.18;;;;;;;;;;5030776;28;20217;-69
2023/06/09 04:46:49;;;;;;;21.50;9.18;;;;;;;;;;5016257;28;20202;-71
2023/06/09 04:49:15;;;;;;;23.75;9.68;;;;;;;;;;5027608;28;20193;-69
2023/06/09 04:51:49;;;;;;;19.50;8.50;;;;;;;;;;5032466;28;20603;-69
2023/06/09 04:54:18;;;;;;;24.73;9.02;;;;;;;;;;5021878;28;20182;-70
2023/06/09 04:56:44;;;;;;;26.70;9.18;;;;;;;;;;5036181;28;20186;-70
2023/06/09 04:59:11;;;;;;;23.38;8.80;;;;;;;;;;5028883;28;20201;-70
2023/06/09 05:01:38;;;;;;;20.83;8.75;;;;;;;;;;5023021;28;20207;-69
2023/06/09 05:04:07;;;;;;;21.70;8.90;;;;;;;;;;5020304;28;20697;-70
2023/06/09 05:06:33;;;;;;;25.83;8.35;;;;;;;;;;5030496;28;20186;-69
2023/06/09 05:08:58;;;;;;;22.50;8.63;;;;;;;;;;5031895;28;20190;-69
2023/06/09 05:11:24;;;;;;;19.05;9.68;;;;;;;;;;5043834;28;20190;-70
2023/06/09 05:13:49;;;;;;;17.83;8.52;;;;;;;;;;5028914;28;20249;-71
2023/06/09 05:16:15;;;;;;;22.27;9.15;;;;;;;;;;5022828;28;20208;-70
2023/06/09 05:18:41;;;;;;;25.52;9.77;;;;;;;;;;5032637;28;20190;-71
2023/06/09 05:21:07;;;;;;;20.30;9.50;;;;;;;;;;5021298;28;20525;-70
2023/06/09 05:23:33;;;;;;;25.08;10.35;;;;;;;;;;5018268;28;20216;-71
2023/06/09 05:25:59;;;;;;;26.67;10.10;;;;;;;;;;5027916;28;20277;-70
2023/06/09 05:28:25;;;;;;;18.95;8.32;;;;;;;;;;5019751;28;20696;-70
2023/06/09 05:30:51;;;;;;;20.23;9.23;;;;;;;;;;5028785;28;20228;-69
2023/06/09 05:33:16;;;;;;;23.75;9.25;;;;;;;;;;5024462;28;20599;-69
2023/06/09 05:35:42;;;;;;;18.48;8.05;;;;;;;;;;5027710;28;20178;-69
2023/06/09 05:38:07;;;;;;;20.42;9.10;;;;;;;;;;5025560;28;20190;-71
2023/06/09 05:40:33;;;;;;;22.25;9.50;;;;;;;;;;5032892;28;20230;-71
2023/06/09 05:42:58;;;;;;;22.75;9.20;;;;;;;;;;5026965;28;20226;-69
2023/06/09 05:45:23;;;;;;;22.75;10.15;;;;;;;;;;5027471;28;20337;-69
2023/06/09 05:47:50;;;;;;;24.85;9.93;;;;;;;;;;5027741;28;20192;-69
2023/06/09 05:50:16;;;;;;;23.45;10.52;;;;;;;;;;5021308;28;20201;-69
2023/06/09 05:52:42;;;;;;;20.20;9.95;;;;;;;;;;5028569;28;20183;-69
2023/06/09 05:55:07;;;;;;;23.65;10.45;;;;;;;;;;5024883;28;20191;-70
2023/06/09 05:57:33;;;;;;;19.58;9.93;;;;;;;;;;5022574;28;20652;-70
2023/06/09 05:59:58;;;;;;;23.67;10.45;;;;;;;;;;5025964;28;20252;-70
2023/06/09 06:02:24;;;;;;;26.00;9.98;;;;;;;;;;5027467;28;20229;-69
2023/06/09 06:04:49;;;;;;;24.35;9.95;;;;;;;;;;5023484;28;20189;-70
2023/06/09 06:07:16;;;;;;;22.40;11.10;;;;;;;;;;5029616;28;20234;-70
2023/06/09 06:09:41;;;;;;;24.15;9.98;;;;;;;;;;5024036;28;20603;-70
2023/06/09 06:12:07;;;;;;;19.42;10.00;;;;;;;;;;5011229;28;20217;-70
2023/06/09 06:14:33;;;;;;;21.52;10.75;;;;;;;;;;5025541;28;20190;-71
2023/06/09 06:16:58;;;;;;;25.80;11.27;;;;;;;;;;5026808;28;20533;-71
2023/06/09 06:19:23;;;;;;;19.88;10.73;;;;;;;;;;5033624;28;20189;-70
2023/06/09 06:21:49;;;;;;;24.50;10.60;;;;;;;;;;5030703;28;20197;-71
2023/06/09 06:24:15;;;;;;;21.08;10.93;;;;;;;;;;5025964;28;20206;-71
2023/06/09 06:26:40;;;;;;;22.40;11.00;;;;;;;;;;5027190;28;20231;-71
2023/06/09 06:29:06;;;;;;;20.95;11.00;;;;;;;;;;5030436;28;20186;-71
2023/06/09 06:31:31;;;;;;;23.50;10.52;;;;;;;;;;5028421;28;20197;-70
2023/06/09 06:33:58;;;;;;;22.20;11.30;;;;;;;;;;5036511;28;20198;-71
2023/06/09 06:36:24;;;;;;;23.50;10.93;;;;;;;;;;5027040;28;20188;-70
2023/06/09 06:38:50;;;;;;;24.00;11.73;;;;;;;;;;5024756;28;20190;-71
2023/06/09 06:41:15;;;;;;;17.13;10.48;;;;;;;;;;5037023;28;20218;-71
2023/06/09 06:43:41;;;;;;;25.33;11.27;;;;;;;;;;5025641;28;20241;-71
2023/06/09 06:46:07;;;;;;;21.23;11.43;;;;;;;;;;5032570;28;20250;-71
2023/06/09 06:48:32;;;;;;;19.80;11.13;;;;;;;;;;5025022;28;20266;-71
2023/06/09 06:50:58;;;;;;;25.05;11.85;;;;;;;;;;5025577;28;20196;-70
2023/06/09 06:53:24;;;;;;;25.08;11.55;;;;;;;;;;5030472;28;20198;-69
2023/06/09 06:55:50;;;;;;;22.13;11.40;;;;;;;;;;5026867;28;20187;-70
2023/06/09 06:58:16;;;;;;;27.75;11.48;;;;;;;;;;5030984;28;20251;-70
2023/06/09 07:00:41;;;;;;;19.88;10.00;;;;;;;;;;5030541;28;20901;-69
2023/06/09 07:03:09;;;;;;;20.33;11.43;;;;;;;;;;5015377;28;20208;-71
2023/06/09 07:05:35;;;;;;;21.45;10.82;;;;;;;;;;5020699;28;20186;-71
2023/06/09 07:08:00;;;;;;;18.45;10.65;;;;;;;;;;5037108;28;20391;-70
2023/06/09 07:10:26;;;;;;;22.17;11.00;;;;;;;;;;5030081;28;20194;-70
2023/06/09 07:12:51;;;;;;;19.75;11.32;;;;;;;;;;5019000;28;20218;-70
2023/06/09 07:15:16;;;;;;;24.88;11.45;;;;;;;;;;5030751;28;20414;-70
2023/06/09 07:17:43;;;;;;;18.65;10.57;;;;;;;;;;5027930;28;20636;-70
2023/06/09 07:20:10;;;;;;;19.35;10.63;;;;;;;;;;5036699;28;20202;-71
2023/06/09 07:22:39;;;;;;;14.55;10.13;;;;;;;;;;5028775;28;20821;-71
2023/06/09 07:25:05;;;;;;;17.00;10.70;;;;;;;;;;5025863;28;20221;-71
2023/06/09 07:27:30;;;;;;;17.90;10.57;;;;;;;;;;5029051;28;20760;-70
2023/06/09 07:29:56;;;;;;;19.27;10.63;;;;;;;;;;5014515;28;20302;-70
2023/06/09 07:32:21;;;;;;;19.10;9.38;;;;;;;;;;5029673;28;20194;-70
2023/06/09 07:34:46;;;;;;;17.30;10.13;;;;;;;;;;5023726;28;20195;-70
2023/06/09 07:37:12;;;;;;;20.05;11.57;;;;;;;;;;5027065;28;20205;-70
2023/06/09 07:39:38;;;;;;;21.60;10.07;;;;;;;;;;5025482;28;20585;-70
2023/06/09 07:42:03;;;;;;;16.25;10.02;;;;;;;;;;5027232;28;20209;-70
2023/06/09 07:44:29;;;;;;;18.23;10.00;;;;;;;;;;5028213;28;20258;-70
2023/06/09 07:46:54;;;;;;;18.05;10.25;;;;;;;;;;5034868;28;20266;-70
2023/06/09 07:49:19;;;;;;;17.08;10.02;;;;;;;;;;5016824;28;20255;-70
2023/06/09 07:51:46;;;;;;;16.80;9.15;;;;;;;;;;5034625;28;20185;-71
2023/06/09 07:54:11;;;;;;;18.02;9.35;;;;;;;;;;5032903;28;20186;-70
2023/06/09 07:56:37;;;;;;;13.85;9.82;;;;;;;;;;5024703;28;20500;-70
2023/06/09 07:59:02;;;;;;;17.50;9.30;;;;;;;;;;5017404;28;20529;-70
2023/06/09 08:01:29;;;;;;;14.55;9.32;;;;;;;;;;5032596;28;20210;-70
2023/06/09 08:03:55;;;;;;;16.08;10.20;;;;;;;;;;5019777;28;20218;-71
2023/06/09 08:06:21;;;;;;;12.60;8.63;;;;;;;;;;5026353;28;20269;-71
2023/06/09 08:08:46;;;;;;;14.30;8.65;;;;;;;;;;5044144;28;20213;-71
2023/06/09 08:11:11;;;;;;;16.48;8.90;;;;;;;;;;5030233;28;20197;-71
2023/06/09 08:13:37;;;;;;;16.55;9.15;;;;;;;;;;5025221;28;20735;-71
2023/06/09 08:16:03;;;;;;;18.25;9.43;;;;;;;;;;5032579;28;20193;-71
2023/06/09 08:18:28;;;;;;;15.07;8.65;;;;;;;;;;5036207;28;20187;-71
2023/06/09 08:20:54;;;;;;;21.10;8.82;;;;;;;;;;5016035;28;20190;-71
2023/06/09 08:23:22;;;;;;;15.90;9.15;;;;;;;;;;5025817;28;20235;-71
2023/06/09 08:25:48;;;;;;;15.75;8.55;;;;;;;;;;5026891;28;20194;-70
2023/06/09 08:28:14;;;;;;;12.80;7.88;;;;;;;;;;5028451;28;20221;-69
2023/06/09 08:30:40;;;;;;;16.52;9.43;;;;;;;;;;5023828;28;20189;-70
2023/06/09 08:33:05;;;;;;;16.75;8.10;;;;;;;;;;5045766;28;20193;-69
2023/06/09 08:35:32;;;;;;;16.30;8.60;;;;;;;;;;5027705;28;20201;-69
2023/06/09 08:37:58;;;;;;;16.80;8.45;;;;;;;;;;5024126;28;20224;-69
2023/06/09 08:40:24;;;;;;;12.90;8.40;;;;;;;;;;5037753;28;20737;-70
2023/06/09 08:42:54;;;;;;;14.18;8.10;;;;;;;;;;5035147;28;20616;-69
2023/06/09 08:45:20;;;;;;;16.88;8.60;;;;;;;;;;5019145;28;20192;-71
2023/06/09 08:47:53;;;;;;;14.25;8.98;;;;;;;;;;5028237;28;20209;-70
2023/06/09 08:50:20;;;;;;;17.08;8.55;;;;;;;;;;5021878;28;20747;-72
2023/06/09 08:52:47;;;;;;;12.77;8.20;;;;;;;;;;5021029;28;20178;-71
2023/06/09 08:55:13;;;;;;;17.50;8.32;;;;;;;;;;5034531;28;20186;-70
2023/06/09 08:57:40;;;;;;;14.38;9.27;;;;;;;;;;5024972;28;20533;-70
2023/06/09 09:00:09;;;;;;;13.23;7.72;;;;;;;;;;5027477;28;20624;-71
2023/06/09 09:02:34;;;;;;;12.57;7.22;;;;;;;;;;5019900;28;20237;-71
2023/06/09 09:05:00;;;;;;;14.23;7.32;;;;;;;;;;5021075;28;20662;-75
2023/06/09 09:07:26;;;;;;;14.52;8.48;;;;;;;;;;5036209;28;20185;-71
2023/06/09 09:09:51;;;;;;;12.75;7.75;;;;;;;;;;5018351;28;20186;-70
2023/06/09 09:12:17;;;;;;;11.77;7.15;;;;;;;;;;5019744;28;20823;-70
2023/06/09 09:14:43;;;;;;;10.30;7.30;;;;;;;;;;5019441;28;20788;-71
2023/06/09 09:17:10;;;;;;;12.43;7.70;;;;;;;;;;5024704;28;20190;-70
2023/06/09 09:19:37;;;;;;;15.10;7.30;;;;;;;;;;5025028;28;20272;-71
2023/06/09 09:22:07;;;;;;;9.90;6.72;;;;;;;;;;5022698;28;20268;-71
2023/06/09 09:24:34;;;;;;;11.35;6.95;;;;;;;;;;5012245;28;20313;-71
2023/06/09 09:27:00;;;;;;;15.60;7.53;;;;;;;;;;5026319;28;20189;-71
2023/06/09 09:29:28;;;;;;;10.15;7.18;;;;;;;;;;5014098;28;20274;-72
2023/06/09 09:31:58;;;;;;;8.85;7.20;;;;;;;;;;5021594;28;20198;-71
2023/06/09 09:34:30;;;;;;;15.25;6.90;;;;;;;;;;5017742;28;20615;-71
2023/06/09 09:36:55;;;;;;;9.63;6.75;;;;;;;;;;5022683;28;20194;-69
2023/06/09 09:39:21;;;;;;;12.10;7.20;;;;;;;;;;5017474;28;20653;-70
2023/06/09 09:42:08;;;;;;;10.65;7.15;;;;;;;;;;5016763;28;20699;-70
2023/06/09 09:44:42;;;;;;;7.78;6.35;;;;;;;;;;5028672;28;20237;-69
2023/06/09 09:47:15;;;;;;;11.57;6.93;;;;;;;;;;5029748;28;20205;-69
2023/06/09 09:49:51;;;;;;;10.15;7.32;;;;;;;;;;5012530;28;20658;-69
2023/06/09 09:52:31;;;;;;;15.23;6.93;;;;;;;;;;5031955;28;20263;-70
2023/06/09 09:54:59;;;;;;;11.63;7.13;;;;;;;;;;5032925;28;20186;-70
2023/06/09 09:57:29;;;;;;;12.75;7.07;;;;;;;;;;5028803;28;20273;-71
2023/06/09 09:59:55;;;;;;;7.30;5.80;;;;;;;;;;5024016;28;20194;-70
2023/06/09 10:02:24;;;;;;;12.77;7.03;;;;;;;;;;5024879;28;20289;-70
2023/06/09 10:04:50;;;;;;;11.70;6.97;;;;;;;;;;5027759;28;20570;-70
2023/06/09 10:07:21;;;;;;;14.93;6.70;;;;;;;;;;5038143;28;20189;-70
2023/06/09 10:09:49;;;;;;;11.88;6.45;;;;;;;;;;5028930;28;20187;-72
2023/06/09 10:12:14;;;;;;;9.90;6.70;;;;;;;;;;5038328;28;20316;-70
2023/06/09 10:14:40;;;;;;;12.20;6.63;;;;;;;;;;5038188;28;20632;-70
2023/06/09 10:17:06;;;;;;;10.38;5.97;;;;;;;;;;5023636;28;20190;-71
2023/06/09 10:19:31;;;;;;;10.38;5.85;;;;;;;;;;5023839;28;20190;-70
2023/06/09 10:21:57;;;;;;;10.95;6.80;;;;;;;;;;5022271;28;20205;-70
2023/06/09 10:24:24;;;;;;;7.53;6.47;;;;;;;;;;5014140;28;20229;-70
2023/06/09 10:26:49;;;;;;;8.90;6.32;;;;;;;;;;5029326;28;20221;-71
2023/06/09 10:29:16;;;;;;;8.80;6.80;;;;;;;;;;5023320;28;20235;-71
2023/06/09 10:31:45;;;;;;;12.13;6.70;;;;;;;;;;5028827;28;20265;-70
2023/06/09 10:34:13;;;;;;;7.38;6.60;;;;;;;;;;5031797;28;20181;-71
2023/06/09 10:36:40;;;;;;;12.57;6.70;;;;;;;;;;5024385;28;20249;-70
2023/06/09 10:39:19;;;;;;;14.90;5.97;;;;;;;;;;5028644;28;20174;-71
2023/06/09 10:42:10;;;;;;;12.40;6.28;;;;;;;;;;5017389;28;20218;-71
2023/06/09 10:44:50;;;;;;;8.15;6.10;;;;;;;;;;5026177;28;20199;-71
2023/06/09 10:47:45;;;;;;;8.82;6.30;;;;;;;;;;5024089;28;20193;-71
2023/06/09 10:50:30;;;;;;;7.95;6.47;;;;;;;;;;5013060;28;20245;-71
2023/06/09 10:52:56;;;;;;;7.80;5.85;;;;;;;;;;5019279;28;20582;-71
2023/06/09 10:55:24;;;;;;;6.70;5.95;;;;;;;;;;5031918;28;20186;-70
2023/06/09 10:57:51;;;;;;;11.27;6.22;;;;;;;;;;5031318;28;20206;-72
2023/06/09 11:00:17;;;;;;;7.32;5.32;;;;;;;;;;5022473;28;20275;-71
2023/06/09 11:02:50;;;;;;;10.75;6.13;;;;;;;;;;5028957;28;20273;-71
2023/06/09 11:05:17;;;;;;;9.07;5.70;;;;;;;;;;5013605;28;20199;-71
2023/06/09 11:07:48;;;;;;;8.30;6.05;;;;;;;;;;5022860;28;20638;-73
2023/06/09 11:10:18;;;;;;;9.40;6.53;;;;;;;;;;5017586;28;20277;-71
2023/06/09 11:12:45;;;;;;;7.80;5.65;;;;;;;;;;5019593;28;20716;-70
2023/06/09 11:15:11;;;;;;;7.20;5.57;;;;;;;;;;5016329;28;20186;-70
2023/06/09 11:17:39;;;;;;;8.13;5.55;;;;;;;;;;5018478;28;20198;-70
2023/06/09 11:20:08;;;;;;;8.10;6.25;;;;;;;;;;5025147;28;20617;-70
2023/06/09 11:22:40;;;;;;;7.85;5.55;;;;;;;;;;5038363;28;20296;-70
2023/06/09 11:25:06;;;;;;;8.02;5.47;;;;;;;;;;5031126;28;20209;-70
2023/06/09 11:27:31;;;;;;;11.02;6.20;;;;;;;;;;5035288;28;20256;-70
2023/06/09 11:30:19;;;;;;;6.30;5.70;;;;;;;;;;5025310;28;20182;-70
2023/06/09 11:32:58;;;;;;;8.98;6.07;;;;;;;;;;5022445;28;20186;-71
2023/06/09 11:35:30;;;;;;;7.93;5.70;;;;;;;;;;5032972;28;20190;-70
2023/06/09 11:38:05;;;;;;;8.25;5.88;;;;;;;;;;5019627;28;20216;-71
2023/06/09 11:40:36;;;;;;;7.40;5.50;;;;;;;;;;5028527;28;20225;-71
2023/06/09 11:43:07;;;;;;;6.47;5.50;;;;;;;;;;5025665;28;20216;-70
2023/06/09 11:45:32;;;;;;;8.98;6.13;;;;;;;;;;5016977;28;20273;-72
2023/06/09 11:47:59;;;;;;;8.80;5.88;;;;;;;;;;5018218;28;20839;-71
2023/06/09 11:50:35;;;;;;;7.10;5.82;;;;;;;;;;5030680;28;20262;-71
2023/06/09 11:53:04;;;;;;;11.95;5.90;;;;;;;;;;5033864;28;20345;-71
2023/06/09 11:55:30;;;;;;;9.50;5.70;;;;;;;;;;5015951;28;20247;-70
2023/06/09 11:57:55;;;;;;;9.05;5.78;;;;;;;;;;5022259;28;20587;-70
2023/06/09 12:00:26;;;;;;;8.73;5.68;;;;;;;;;;4325320;28;10000841;-73
2023/06/09 12:02:52;;;;;;;8.70;6.00;;;;;;;;;;5023513;28;20237;-71
2023/06/09 12:05:19;;;;;;;7.65;6.15;;;;;;;;;;5026439;28;20217;-70
2023/06/09 12:07:45;;;;;;;6.50;5.82;;;;;;;;;;5025323;28;20186;-72
2023/06/09 12:10:13;;;;;;;7.70;5.80;;;;;;;;;;5037626;28;20273;-71
2023/06/09 12:12:58;;;;;;;7.88;6.22;;;;;;;;;;5012178;28;20582;-70
2023/06/09 12:15:25;;;;;;;6.57;5.97;;;;;;;;;;5019902;28;20612;-71
2023/06/09 12:17:52;;;;;;;7.53;5.72;;;;;;;;;;5020526;28;20714;-70
2023/06/09 12:20:31;;;;;;;7.10;6.05;;;;;;;;;;5029444;28;20562;-71
2023/06/09 12:22:59;;;;;;;11.77;6.18;;;;;;;;;;5012879;28;20231;-70
2023/06/09 12:25:30;;;;;;;6.50;5.90;;;;;;;;;;5013560;28;20213;-70
2023/06/09 12:28:16;;;;;;;11.27;5.82;;;;;;;;;;5022150;28;20198;-70
2023/06/09 12:30:49;;;;;;;8.65;6.25;;;;;;;;;;5023700;28;20197;-71
2023/06/09 12:33:20;;;;;;;11.45;7.18;;;;;;;;;;5025988;28;20621;-68
2023/06/09 12:35:47;;;;;;;9.10;6.28;;;;;;;;;;5031793;28;20219;-69
2023/06/09 12:38:26;;;;;;;7.85;6.00;;;;;;;;;;5025914;28;20556;-69
2023/06/09 12:40:56;;;;;;;8.55;6.50;;;;;;;;;;5024386;28;20241;-70
2023/06/09 12:43:25;;;;;;;10.23;6.43;;;;;;;;;;5011790;28;20221;-71
2023/06/09 12:45:56;;;;;;;9.68;6.72;;;;;;;;;;5016217;28;20202;-70
2023/06/09 12:48:21;;;;;;;7.88;5.63;;;;;;;;;;5020549;28;20186;-69
2023/06/09 12:50:47;;;;;;;7.40;6.05;;;;;;;;;;5032926;28;20194;-69
2023/06/09 12:53:13;;;;;;;9.85;6.53;;;;;;;;;;5023979;28;20197;-70
2023/06/09 12:55:40;;;;;;;11.70;6.30;;;;;;;;;;5021096;28;20189;-69
2023/06/09 12:58:08;;;;;;;7.85;5.85;;;;;;;;;;5024278;28;20244;-69
2023/06/09 13:00:35;;;;;;;6.70;6.07;;;;;;;;;;5023718;28;21090;-71
2023/06/09 13:03:03;;;;;;;9.23;6.20;;;;;;;;;;5035025;28;20280;-71
2023/06/09 13:05:30;;;;;;;7.93;5.85;;;;;;;;;;5027384;28;20293;-70
2023/06/09 13:08:00;;;;;;;7.60;5.95;;;;;;;;;;5026327;28;20193;-70
2023/06/09 13:10:26;;;;;;;7.82;5.85;;;;;;;;;;5023499;28;20257;-71
2023/06/09 13:12:52;;;;;;;7.22;5.90;;;;;;;;;;5026561;28;20547;-71
2023/06/09 13:15:19;;;;;;;7.03;5.68;;;;;;;;;;5019328;28;20190;-70
2023/06/09 13:17:45;;;;;;;7.22;5.93;;;;;;;;;;5019180;28;20583;-70
2023/06/09 13:20:12;;;;;;;10.73;6.65;;;;;;;;;;5027208;28;20243;-70
2023/06/09 13:22:37;;;;;;;7.03;6.32;;;;;;;;;;5022141;28;20228;-71
2023/06/09 13:25:03;;;;;;;9.05;5.88;;;;;;;;;;5015190;28;20193;-70
2023/06/09 13:27:28;;;;;;;6.32;5.72;;;;;;;;;;5026655;28;20225;-70
2023/06/09 13:29:54;;;;;;;7.03;6.00;;;;;;;;;;5033639;28;20272;-70
2023/06/09 13:32:19;;;;;;;8.50;5.90;;;;;;;;;;5031961;28;20500;-72
2023/06/09 13:34:44;;;;;;;9.20;6.00;;;;;;;;;;5027244;28;20495;-70
2023/06/09 13:37:10;;;;;;;8.55;5.80;;;;;;;;;;5023626;28;20197;-71
2023/06/09 13:39:35;;;;;;;7.90;5.88;;;;;;;;;;5027873;28;20224;-71
2023/06/09 13:42:01;;;;;;;7.57;6.20;;;;;;;;;;5025905;28;20222;-71
2023/06/09 13:44:26;;;;;;;10.50;5.43;;;;;;;;;;5024879;28;20308;-72
2023/06/09 13:46:51;;;;;;;8.75;5.90;;;;;;;;;;5027290;28;20201;-70
2023/06/09 13:49:17;;;;;;;9.75;5.80;;;;;;;;;;5030056;28;20519;-70
2023/06/09 13:51:42;;;;;;;11.55;5.85;;;;;;;;;;5028618;28;20190;-70
2023/06/09 13:54:07;;;;;;;7.47;5.90;;;;;;;;;;5028362;28;20200;-70
2023/06/09 13:56:33;;;;;;;9.95;6.05;;;;;;;;;;5033194;28;20248;-70
2023/06/09 13:58:59;;;;;;;8.25;5.60;;;;;;;;;;5031892;28;20185;-70
2023/06/09 14:01:24;;;;;;;8.18;5.75;;;;;;;;;;5026624;28;20217;-73
2023/06/09 14:03:50;;;;;;;7.90;5.90;;;;;;;;;;5031067;28;20220;-70
2023/06/09 14:06:15;;;;;;;9.38;5.65;;;;;;;;;;5030939;28;20197;-69
2023/06/09 14:08:40;;;;;;;6.10;5.50;;;;;;;;;;5029527;28;20230;-69
2023/06/09 14:11:06;;;;;;;6.43;5.38;;;;;;;;;;5026636;28;20194;-69
2023/06/09 14:13:31;;;;;;;9.98;5.97;;;;;;;;;;5021117;28;20661;-69
2023/06/09 14:15:57;;;;;;;5.88;5.30;;;;;;;;;;5019168;28;20202;-69
2023/06/09 14:18:22;;;;;;;6.53;5.80;;;;;;;;;;5027192;28;20566;-70
2023/06/09 14:20:48;;;;;;;6.53;5.72;;;;;;;;;;5028819;28;20193;-70
2023/06/09 14:23:15;;;;;;;10.20;6.18;;;;;;;;;;5024539;28;20674;-70
2023/06/09 14:25:41;;;;;;;12.02;6.00;;;;;;;;;;5021265;28;20594;-71
2023/06/09 14:28:07;;;;;;;8.38;5.53;;;;;;;;;;5022074;28;20714;-69
2023/06/09 14:30:32;;;;;;;5.97;5.47;;;;;;;;;;5024636;28;20201;-69
2023/06/09 14:32:58;;;;;;;8.00;6.25;;;;;;;;;;5030054;28;20212;-69